Croton Falls, New York
Current Conditions -  °F | °C
As of 1:24 AM on Monday 22 Dec 2014 (Local Time) from KDXR Reporting Station
Overcast Overcast  
Wind Chill: 33°   Ceiling: 900
Heat Index: 33°   Visibility: 8mi
Dew Point: 28°   Wind: 3mph
Humidity: 82%   Direction: 30°NNE
Pressure: 30.32"   Gusts: NA
Location:  41.35°N, 73.66°W
Report Text: KDXR 220624Z AUTO 03003KT 8SM OVC009 01/M02 A3032 RMK AO2 T00061022
Loading
Personal Weather Stations






























Interactive Weather Map New forecast layout! Learn more

10-Day Weather Forecast

Advertisements
Track Severe Weather on mobile